Time,TemperatureF,DewpointF,PressureIn,WindDirection,WindDirectionDegrees,WindSpeedMPH,WindSpeedGustMPH,Humidity,HourlyPrecipIn,Conditions,Clouds,dailyrainin,SoftwareType,DateUTC
2013-06-17 08:00:00,73.8,68.7,30.08,ESE,113,0.0,4.0,84,0.00,CLR,,0.00,WeatherDisplay:10.37,2013-06-17 06:00:00,
2013-06-17 08:10:00,74.6,68.7,30.08,South,169,1.0,3.0,82,0.00,CLR,,0.00,WeatherDisplay:10.37,2013-06-17 06:10:00,
2013-06-17 08:20:00,75.9,68.5,30.08,SSE,162,1.0,3.0,78,0.00,CLR,,0.00,WeatherDisplay:10.37,2013-06-17 06:20:00,
2013-06-17 08:30:00,75.4,67.3,30.08,West,264,1.0,2.0,76,0.00,CLR,,0.00,WeatherDisplay:10.37,2013-06-17 06:30:00,
2013-06-17 08:40:00,75.5,68.1,30.08,WSW,257,0.0,3.0,78,0.00,CLR,,0.00,WeatherDisplay:10.37,2013-06-17 06:40:00,
2013-06-17 08:50:00,76.7,68.9,30.08,SW,222,1.0,5.0,77,0.00,CLR,,0.00,WeatherDisplay:10.37,2013-06-17 06:50:00,
2013-06-17 09:00:00,77.0,68.5,30.08,WSW,237,1.0,5.0,75,0.00,CLR,,0.00,WeatherDisplay:10.37,2013-06-17 07:00:00,
2013-06-17 09:10:00,77.7,68.4,30.08,SW,235,0.0,3.0,73,0.00,CLR,,0.00,WeatherDisplay:10.37,2013-06-17 07:10:00,
2013-06-17 09:20:00,77.7,68.3,30.08,SSW,213,2.0,5.0,73,0.00,CLR,,0.00,WeatherDisplay:10.37,2013-06-17 07:20:00,
2013-06-17 09:30:00,78.0,68.3,30.08,SSW,202,1.0,4.0,72,0.00,CLR,,0.00,WeatherDisplay:10.37,2013-06-17 07:30:00,
2013-06-17 09:40:00,78.3,67.7,30.08,WSW,239,3.0,5.0,70,0.00,CLR,,0.00,WeatherDisplay:10.37,2013-06-17 07:40:00,
2013-06-17 09:50:00,78.0,67.0,30.08,SW,228,2.0,4.0,69,0.00,CLR,,0.00,WeatherDisplay:10.37,2013-06-17 07:50:00,
2013-06-17 10:00:00,77.7,65.9,30.07,SSW,199,2.0,7.0,67,0.00,CLR,,0.00,WeatherDisplay:10.37,2013-06-17 08:00:00,
2013-06-17 10:10:00,77.6,65.8,30.07,SW,217,3.0,6.0,67,0.00,CLR,,0.00,WeatherDisplay:10.37,2013-06-17 08:10:00,
2013-06-17 10:20:00,77.9,65.6,30.07,SSW,209,2.0,6.0,66,0.00,CLR,,0.00,WeatherDisplay:10.37,2013-06-17 08:20:00,
2013-06-17 10:30:00,78.5,66.6,30.07,SW,232,2.0,7.0,67,0.00,CLR,,0.00,WeatherDisplay:10.37,2013-06-17 08:30:00,
2013-06-17 10:40:00,77.4,66.8,30.07,WSW,252,1.0,8.0,70,0.00,CLR,,0.00,WeatherDisplay:10.37,2013-06-17 08:40:00,
2013-06-17 10:50:00,77.5,67.7,30.07,WSW,255,2.0,6.0,72,0.00,CLR,,0.00,WeatherDisplay:10.37,2013-06-17 08:50:00,
2013-06-17 11:00:00,77.8,67.6,30.07,SW,216,2.0,6.0,71,0.00,CLR,,0.00,WeatherDisplay:10.37,2013-06-17 09:00:00,
2013-06-17 11:10:00,77.2,68.3,30.08,West,263,2.0,7.0,74,0.00,CLR,,0.00,WeatherDisplay:10.37,2013-06-17 09:10:00,
2013-06-17 11:20:00,77.8,68.4,30.08,WSW,242,5.0,7.0,73,0.00,CLR,,0.00,WeatherDisplay:10.37,2013-06-17 09:20:00,
2013-06-17 11:30:00,77.9,67.7,30.08,SW,234,5.0,7.0,71,0.00,CLR,,0.00,WeatherDisplay:10.37,2013-06-17 09:30:00,
2013-06-17 11:40:00,78.4,67.8,30.08,WSW,242,3.0,7.0,70,0.00,CLR,,0.00,WeatherDisplay:10.37,2013-06-17 09:40:00,
2013-06-17 11:50:00,78.8,67.4,30.08,SW,216,2.0,8.0,68,0.00,CLR,,0.00,WeatherDisplay:10.37,2013-06-17 09:50:00,
2013-06-17 12:00:00,78.9,66.2,30.08,SSW,212,5.0,9.0,65,0.00,CLR,,0.00,WeatherDisplay:10.37,2013-06-17 10:00:00,
2013-06-17 12:10:00,78.4,65.2,30.08,WSW,258,2.0,8.0,64,0.00,CLR,,0.00,WeatherDisplay:10.37,2013-06-17 10:10:00,
2013-06-17 12:20:00,79.4,65.7,30.07,WSW,258,2.0,7.0,63,0.00,CLR,,0.00,WeatherDisplay:10.37,2013-06-17 10:20:00,
2013-06-17 12:30:00,79.3,64.7,30.08,West,260,3.0,6.0,61,0.00,CLR,,0.00,WeatherDisplay:10.37,2013-06-17 10:30:00,
2013-06-17 12:40:00,80.2,65.1,30.08,WSW,237,3.0,9.0,60,0.00,CLR,,0.00,WeatherDisplay:10.37,2013-06-17 10:40:00,
2013-06-17 12:50:00,80.7,65.1,30.07,WSW,251,2.0,7.0,59,0.00,CLR,,0.00,WeatherDisplay:10.37,2013-06-17 10:50:00,
2013-06-17 13:00:00,79.9,63.8,30.07,West,265,3.0,7.0,58,0.00,CLR,,0.00,WeatherDisplay:10.37,2013-06-17 11:00:00,
2013-06-17 13:10:00,80.8,64.2,30.07,WSW,247,3.0,9.0,57,0.00,CLR,,0.00,WeatherDisplay:10.37,2013-06-17 11:10:00,
2013-06-17 13:20:00,81.6,64.4,30.07,SW,229,2.0,7.0,56,0.00,CLR,,0.00,WeatherDisplay:10.37,2013-06-17 11:20:00,
2013-06-17 13:30:00,81.8,64.6,30.07,SW,227,3.0,8.0,56,0.00,CLR,,0.00,WeatherDisplay:10.37,2013-06-17 11:30:00,
2013-06-17 13:40:00,81.8,64.6,30.07,SW,219,3.0,8.0,56,0.00,CLR,,0.00,WeatherDisplay:10.37,2013-06-17 11:40:00,
2013-06-17 13:50:00,82.8,65.0,30.07,SW,221,2.0,7.0,55,0.00,CLR,,0.00,WeatherDisplay:10.37,2013-06-17 11:50:00,
2013-06-17 14:00:00,82.8,65.0,30.07,WSW,237,2.0,8.0,55,0.00,CLR,,0.00,WeatherDisplay:10.37,2013-06-17 12:00:00,
2013-06-17 14:10:00,83.0,64.6,30.06,SSW,213,3.0,7.0,54,0.00,CLR,,0.00,WeatherDisplay:10.37,2013-06-17 12:10:00,
2013-06-17 14:20:00,83.3,64.9,30.06,WSW,240,2.0,5.0,54,0.00,CLR,,0.00,WeatherDisplay:10.37,2013-06-17 12:20:00,
2013-06-17 14:30:00,82.7,64.4,30.06,West,280,3.0,7.0,54,0.00,CLR,,0.00,WeatherDisplay:10.37,2013-06-17 12:30:00,
2013-06-17 14:40:00,82.8,63.9,30.06,WSW,251,3.0,9.0,53,0.00,CLR,,0.00,WeatherDisplay:10.37,2013-06-17 12:40:00,
2013-06-17 14:50:00,82.8,63.9,30.05,SW,225,3.0,8.0,53,0.00,CLR,,0.00,WeatherDisplay:10.37,2013-06-17 12:50:00,
2013-06-17 15:00:00,83.3,63.9,30.05,WSW,243,5.0,7.0,52,0.00,CLR,,0.00,WeatherDisplay:10.37,2013-06-17 13:00:00,
2013-06-17 15:10:00,83.2,64.3,30.05,WSW,242,2.0,8.0,53,0.00,CLR,,0.00,WeatherDisplay:10.37,2013-06-17 13:10:00,
2013-06-17 15:20:00,83.6,64.7,30.05,SW,233,1.0,6.0,53,0.00,CLR,,0.00,WeatherDisplay:10.37,2013-06-17 13:20:00,
2013-06-17 15:30:00,85.0,65.4,30.04,WSW,244,2.0,7.0,52,0.00,CLR,,0.00,WeatherDisplay:10.37,2013-06-17 13:30:00,
2013-06-17 15:40:00,84.5,65.5,30.04,South,178,2.0,7.0,53,0.00,CLR,,0.00,WeatherDisplay:10.37,2013-06-17 13:40:00,
2013-06-17 15:50:00,84.4,67.0,30.04,SW,218,2.0,9.0,56,0.00,CLR,,0.00,WeatherDisplay:10.37,2013-06-17 13:50:00,
2013-06-17 16:00:00,85.0,67.0,30.04,South,185,5.0,8.0,55,0.00,CLR,,0.00,WeatherDisplay:10.37,2013-06-17 14:00:00,
2013-06-17 16:10:00,85.6,68.1,30.04,SW,224,1.0,8.0,56,0.00,CLR,,0.00,WeatherDisplay:10.37,2013-06-17 14:10:00,
2013-06-17 16:20:00,86.0,68.5,30.03,SW,217,2.0,8.0,56,0.00,CLR,,0.00,WeatherDisplay:10.37,2013-06-17 14:20:00,
2013-06-17 16:30:00,84.6,68.7,30.03,SW,222,3.0,9.0,59,0.00,CLR,,0.00,WeatherDisplay:10.37,2013-06-17 14:30:00,
2013-06-17 16:40:00,84.2,68.8,30.03,SSW,213,2.0,10.0,60,0.00,CLR,,0.00,WeatherDisplay:10.37,2013-06-17 14:40:00,
2013-06-17 16:50:00,85.0,68.6,30.03,SW,222,2.0,7.0,58,0.00,CLR,,0.00,WeatherDisplay:10.37,2013-06-17 14:50:00,
2013-06-17 17:00:00,84.6,68.2,30.03,SW,221,2.0,8.0,58,0.00,CLR,,0.00,WeatherDisplay:10.37,2013-06-17 15:00:00,
2013-06-17 17:10:00,84.6,67.7,30.03,SW,232,3.0,9.0,57,0.00,CLR,,0.00,WeatherDisplay:10.37,2013-06-17 15:10:00,
2013-06-17 17:20:00,84.5,67.6,30.02,SW,216,3.0,9.0,57,0.00,CLR,,0.00,WeatherDisplay:10.37,2013-06-17 15:20:00,
2013-06-17 17:30:00,84.7,68.3,30.02,WSW,239,1.0,7.0,58,0.00,CLR,,0.00,WeatherDisplay:10.37,2013-06-17 15:30:00,
2013-06-17 17:40:00,84.5,68.1,30.02,West,262,3.0,6.0,58,0.00,CLR,,0.00,WeatherDisplay:10.37,2013-06-17 15:40:00,
2013-06-17 17:50:00,84.1,68.3,30.02,SW,221,3.0,8.0,59,0.00,CLR,,0.00,WeatherDisplay:10.37,2013-06-17 15:50:00,
2013-06-17 18:00:00,83.8,68.9,30.01,WSW,245,2.0,8.0,61,0.00,CLR,,0.00,WeatherDisplay:10.37,2013-06-17 16:00:00,
2013-06-17 18:10:00,83.5,69.1,30.02,West,263,2.0,8.0,62,0.00,CLR,,0.00,WeatherDisplay:10.37,2013-06-17 16:10:00,
2013-06-17 18:20:00,82.9,69.5,30.01,WSW,253,3.0,9.0,64,0.00,CLR,,0.00,WeatherDisplay:10.37,2013-06-17 16:20:00,
2013-06-17 18:30:00,82.7,69.7,30.02,WSW,241,3.0,9.0,65,0.00,CLR,,0.00,WeatherDisplay:10.37,2013-06-17 16:30:00,
2013-06-17 18:40:00,82.4,70.3,30.02,West,260,3.0,7.0,67,0.00,CLR,,0.00,WeatherDisplay:10.37,2013-06-17 16:40:00,
2013-06-17 18:50:00,82.2,70.6,30.02,West,278,2.0,7.0,68,0.00,CLR,,0.00,WeatherDisplay:10.37,2013-06-17 16:50:00,
2013-06-17 19:00:00,82.2,69.7,30.02,West,269,5.0,7.0,66,0.00,CLR,,0.00,WeatherDisplay:10.37,2013-06-17 17:00:00,
2013-06-17 19:10:00,83.0,70.5,30.02,West,259,2.0,6.0,66,0.00,CLR,,0.00,WeatherDisplay:10.37,2013-06-17 17:10:00,
2013-06-17 19:20:00,83.9,70.4,30.02,SW,217,2.0,5.0,64,0.00,CLR,,0.00,WeatherDisplay:10.37,2013-06-17 17:20:00,
2013-06-17 19:30:00,84.2,69.8,30.02,SW,235,0.0,5.0,62,0.00,CLR,,0.00,WeatherDisplay:10.37,2013-06-17 17:30:00,
2013-06-17 19:40:00,83.0,70.9,30.02,SSE,161,2.0,5.0,67,0.00,CLR,,0.00,WeatherDisplay:10.37,2013-06-17 17:40:00,
2013-06-17 19:50:00,81.2,70.9,30.02,SE,145,2.0,5.0,71,0.00,CLR,,0.00,WeatherDisplay:10.37,2013-06-17 17:50:00,
2013-06-17 20:00:00,79.6,71.4,30.01,SE,143,1.0,4.0,76,0.00,CLR,,0.00,WeatherDisplay:10.37,2013-06-17 18:00:00,
2013-06-17 20:10:00,78.5,71.0,30.02,SE,124,2.0,5.0,78,0.00,CLR,,0.00,WeatherDisplay:10.37,2013-06-17 18:10:00,
2013-06-17 20:20:00,77.3,71.0,30.02,SE,126,1.0,3.0,81,0.00,CLR,,0.00,WeatherDisplay:10.37,2013-06-17 18:20:00,
2013-06-17 20:30:00,76.1,70.9,30.02,SE,126,2.0,5.0,84,0.00,CLR,,0.00,WeatherDisplay:10.37,2013-06-17 18:30:00,
2013-06-17 20:40:00,75.4,70.6,30.02,SE,132,2.0,4.0,85,0.00,CLR,,0.00,WeatherDisplay:10.37,2013-06-17 18:40:00,
2013-06-17 20:50:00,75.4,71.0,30.02,SE,137,1.0,3.0,86,0.00,CLR,,0.00,WeatherDisplay:10.37,2013-06-17 18:50:00,
2013-06-17 21:00:00,77.0,71.1,30.02,NW,324,3.0,4.0,82,0.00,CLR,,0.00,WeatherDisplay:10.37,2013-06-17 19:00:00,
2013-06-17 21:10:00,77.2,70.9,30.02,ENE,58,0.0,3.0,81,0.00,CLR,,0.00,WeatherDisplay:10.37,2013-06-17 19:10:00,
2013-06-17 21:20:00,76.1,70.6,30.03,SE,126,2.0,4.0,83,0.00,CLR,,0.00,WeatherDisplay:10.37,2013-06-17 19:20:00,
2013-06-17 21:30:00,74.9,70.4,30.03,SE,133,2.0,4.0,86,0.00,CLR,,0.00,WeatherDisplay:10.37,2013-06-17 19:30:00,
2013-06-17 21:40:00,74.3,70.2,30.03,ESE,122,0.0,3.0,87,0.00,CLR,,0.00,WeatherDisplay:10.37,2013-06-17 19:40:00,
2013-06-17 21:50:00,74.8,70.7,30.03,East,98,0.0,1.0,87,0.00,CLR,,0.00,WeatherDisplay:10.37,2013-06-17 19:50:00,
2013-06-17 22:00:00,74.8,70.3,30.04,SE,135,2.0,3.0,86,0.00,CLR,,0.00,WeatherDisplay:10.37,2013-06-17 20:00:00,
2013-06-17 22:10:00,74.7,70.6,30.04,South,177,0.0,3.0,87,0.00,CLR,,0.00,WeatherDisplay:10.37,2013-06-17 20:10:00,
2013-06-17 22:20:00,75.2,71.0,30.04,SSW,209,0.0,0.0,87,0.00,CLR,,0.00,WeatherDisplay:10.37,2013-06-17 20:20:00,
2013-06-17 22:30:00,75.7,70.9,30.04,NNW,332,3.0,4.0,85,0.00,CLR,,0.00,WeatherDisplay:10.37,2013-06-17 20:30:00,
2013-06-17 22:40:00,76.1,70.6,30.04,WNW,295,0.0,3.0,83,0.00,CLR,,0.00,WeatherDisplay:10.37,2013-06-17 20:40:00,
2013-06-17 22:50:00,76.4,70.5,30.04,NNE,16,3.0,5.0,82,0.00,CLR,,0.00,WeatherDisplay:10.37,2013-06-17 20:50:00,
2013-06-17 23:00:00,76.8,69.8,30.04,NNW,343,5.0,7.0,79,0.00,CLR,,0.00,WeatherDisplay:10.37,2013-06-17 21:00:00,
2013-06-17 23:10:00,77.3,68.8,30.03,North,354,2.0,5.0,75,0.00,CLR,,0.00,WeatherDisplay:10.37,2013-06-17 21:10:00,
2013-06-17 23:20:00,76.9,70.2,30.04,East,91,2.0,3.0,80,0.00,CLR,,0.00,WeatherDisplay:10.37,2013-06-17 21:20:00,
2013-06-17 23:30:00,77.3,68.3,30.04,NNE,31,3.0,5.0,74,0.00,CLR,,0.00,WeatherDisplay:10.37,2013-06-17 21:30:00,
2013-06-17 23:40:00,78.2,67.2,30.04,NE,43,2.0,6.0,69,0.00,CLR,,0.00,WeatherDisplay:10.37,2013-06-17 21:40:00,
2013-06-17 23:50:00,78.3,69.7,30.04,East,83,1.0,4.0,75,0.00,CLR,,0.00,WeatherDisplay:10.37,2013-06-17 21:50:00,